Time;durP1;ratioP1;P1;durP2;ratioP2;P2;SDS_P1;SDS_P2;PMS_P1;PMS_P2;Temp;Humidity;BMP_temperature;BMP_pressure;BME280_temperature;BME280_humidity;BME280_pressure;Samples;Min_cycle;Max_cycle;Signal;HPM_P1;HPM_P2
2021/04/24 00:02:11;;;;;;;35.83;13.63;;;;;;;26.17;16.73;98853.75;5034956;28;20029;-89
2021/04/24 00:04:39;;;;;;;26.90;10.15;;;;;;;26.34;16.36;98835.75;5042416;28;20026;-89
2021/04/24 00:07:07;;;;;;;39.35;13.40;;;;;;;26.19;16.67;98842.84;5033737;28;20038;-89
2021/04/24 00:09:33;;;;;;;25.73;10.02;;;;;;;26.21;16.68;98841.19;5047614;28;20025;-89
2021/04/24 00:11:59;;;;;;;23.52;9.40;;;;;;;26.43;16.40;98838.78;5043192;28;20158;-89
2021/04/24 00:14:26;;;;;;;21.25;8.60;;;;;;;26.54;16.26;98842.97;5044169;28;20037;-89
2021/04/24 00:16:52;;;;;;;19.95;8.52;;;;;;;26.59;16.25;98838.84;5041152;28;20112;-89
2021/04/24 00:19:18;;;;;;;18.48;7.30;;;;;;;26.44;16.52;98837.56;5043744;28;20068;-89
2021/04/24 00:21:44;;;;;;;17.45;7.05;;;;;;;26.22;16.62;98836.38;5040056;28;20057;-89
2021/04/24 00:24:10;;;;;;;17.70;7.28;;;;;;;26.01;16.67;98835.50;5042358;28;20059;-89
2021/04/24 00:26:37;;;;;;;12.80;5.97;;;;;;;25.75;17.29;98841.19;5033945;28;20083;-89
2021/04/24 00:29:04;;;;;;;16.35;6.95;;;;;;;25.99;16.80;98837.97;5038035;28;20044;-90
2021/04/24 00:31:31;;;;;;;19.98;8.13;;;;;;;26.15;16.65;98828.84;5038405;28;20041;-90
2021/04/24 00:33:57;;;;;;;21.23;9.63;;;;;;;26.15;16.78;98831.66;5034642;28;20116;-90
2021/04/24 00:36:23;;;;;;;23.48;9.25;;;;;;;26.25;16.74;98835.50;5049243;28;20495;-89
2021/04/24 00:38:50;;;;;;;21.90;8.93;;;;;;;26.23;16.48;98830.31;5048928;28;20025;-89
2021/04/24 00:41:16;;;;;;;15.00;6.95;;;;;;;26.33;16.61;98825.69;5042534;28;20037;-89
2021/04/24 00:43:42;;;;;;;15.48;7.28;;;;;;;26.46;16.69;98830.28;5045073;28;20088;-89
2021/04/24 00:46:10;;;;;;;14.70;7.10;;;;;;;26.54;16.46;98828.88;5047902;28;20041;-90
2021/04/24 00:48:36;;;;;;;11.20;5.38;;;;;;;26.58;16.26;98829.59;5042638;28;20088;-90
2021/04/24 00:51:04;;;;;;;16.60;7.38;;;;;;;26.63;16.05;98831.91;5041040;28;20512;-89
2021/04/24 00:53:30;;;;;;;10.93;5.68;;;;;;;26.62;16.21;98827.53;5039836;28;20526;-89
2021/04/24 00:55:57;;;;;;;13.43;5.40;;;;;;;26.63;15.93;98829.09;5045604;28;20031;-89
2021/04/24 00:58:23;;;;;;;11.35;4.80;;;;;;;26.61;15.89;98830.75;5043517;28;20143;-88
2021/04/24 01:00:50;;;;;;;13.10;5.78;;;;;;;26.43;15.87;98831.13;5038464;28;20495;-89
2021/04/24 01:03:16;;;;;;;15.05;6.90;;;;;;;26.31;16.21;98819.69;5036427;28;20124;-89
2021/04/24 01:05:43;;;;;;;15.55;6.65;;;;;;;26.31;16.21;98823.31;5047038;28;20033;-89
2021/04/24 01:08:10;;;;;;;14.43;6.00;;;;;;;26.32;16.25;98824.13;5043900;28;20033;-89
2021/04/24 01:10:44;;;;;;;15.23;6.78;;;;;;;26.38;15.93;98816.75;5040843;28;20495;-89
2021/04/24 01:13:10;;;;;;;12.70;5.45;;;;;;;26.28;16.34;98815.72;5045107;28;20053;-89
2021/04/24 01:15:37;;;;;;;9.95;4.55;;;;;;;26.35;16.26;98817.63;5036880;28;20035;-90
2021/04/24 01:18:07;;;;;;;12.52;5.47;;;;;;;26.18;16.24;98819.56;5048197;28;20055;-90
2021/04/24 01:20:35;;;;;;;9.85;4.35;;;;;;;26.26;15.77;98817.38;5044088;28;20026;-89
2021/04/24 01:23:03;;;;;;;14.57;4.85;;;;;;;26.47;15.62;98811.34;5038238;28;20033;-89
2021/04/24 01:25:29;;;;;;;10.43;4.80;;;;;;;26.63;15.62;98817.84;5044335;28;20506;-89
2021/04/24 01:27:58;;;;;;;11.77;4.78;;;;;;;26.39;15.89;98816.31;5043836;28;20025;-90
2021/04/24 01:30:32;;;;;;;12.77;4.53;;;;;;;25.85;16.51;98818.50;5038510;28;20072;-90
2021/04/24 01:32:58;;;;;;;9.88;4.82;;;;;;;25.94;16.19;98812.31;5035561;28;20568;-89
2021/04/24 01:35:29;;;;;;;12.98;5.20;;;;;;;26.22;16.14;98805.41;5037173;28;20035;-89
2021/04/24 01:37:56;;;;;;;10.48;4.85;;;;;;;26.48;15.90;98813.72;5043716;28;20034;-89
2021/04/24 01:40:23;;;;;;;10.77;5.35;;;;;;;26.38;16.08;98808.28;5041010;28;20091;-89
2021/04/24 01:42:49;;;;;;;13.38;6.00;;;;;;;26.20;16.18;98805.03;5042342;28;20029;-89
2021/04/24 01:45:18;;;;;;;9.82;4.57;;;;;;;26.27;16.20;98805.69;5044002;28;20044;-89
2021/04/24 01:47:45;;;;;;;9.18;3.67;;;;;;;26.16;16.44;98809.94;5042987;28;20510;-89
2021/04/24 01:50:15;;;;;;;9.32;3.20;;;;;;;26.11;16.08;98816.88;5039193;28;20069;-89
2021/04/24 01:52:43;;;;;;;13.30;4.65;;;;;;;26.01;15.82;98807.38;5040060;28;20024;-89
2021/04/24 01:55:14;;;;;;;13.07;5.53;;;;;;;26.16;15.90;98799.50;5043187;28;20117;-89
2021/04/24 01:57:45;;;;;;;16.33;7.38;;;;;;;26.29;15.84;98791.19;5057725;28;20037;-88
2021/04/24 02:00:12;;;;;;;;;;;;;;;26.20;15.85;98788.16;5049375;28;20033;-88
2021/04/24 02:02:39;;;;;;;9.77;4.47;;;;;;;25.77;16.42;98794.53;5040141;28;19970;-88
2021/04/24 02:05:07;;;;;;;10.48;4.75;;;;;;;25.55;16.60;98798.13;5047926;28;20099;-88
2021/04/24 02:07:33;;;;;;;11.27;5.00;;;;;;;25.70;16.51;98786.22;5036860;28;20137;-89
2021/04/24 02:09:59;;;;;;;15.23;5.32;;;;;;;26.07;16.35;98793.56;5037731;28;20035;-88
2021/04/24 02:12:25;;;;;;;10.73;5.03;;;;;;;26.28;15.68;98787.56;5043678;28;20100;-88
2021/04/24 02:14:53;;;;;;;14.38;6.00;;;;;;;26.39;15.56;98779.72;5046406;28;20029;-88
2021/04/24 02:17:22;;;;;;;18.38;6.53;;;;;;;26.50;15.77;98785.13;5037431;28;20032;-89
2021/04/24 02:19:50;;;;;;;12.98;5.80;;;;;;;26.38;15.49;98783.75;5066647;28;20026;-89
2021/04/24 02:22:17;;;;;;;13.07;6.10;;;;;;;26.43;15.48;98783.25;5039046;28;20044;-89
2021/04/24 02:24:46;;;;;;;8.43;3.97;;;;;;;26.24;15.67;98772.78;5035670;28;20399;-89
2021/04/24 02:27:12;;;;;;;11.85;4.82;;;;;;;26.38;15.64;98769.69;5043180;28;20033;-89
2021/04/24 02:29:41;;;;;;;9.90;4.57;;;;;;;26.58;15.77;98766.88;5041385;28;20509;-89
2021/04/24 02:32:08;;;;;;;10.48;4.88;;;;;;;25.92;16.39;98772.56;5035380;28;20030;-89
2021/04/24 02:34:36;;;;;;;13.18;5.78;;;;;;;25.70;16.75;98774.97;5035640;28;20056;-89
2021/04/24 02:37:02;;;;;;;10.40;4.50;;;;;;;26.05;16.22;98767.88;5043523;28;20148;-89
2021/04/24 02:39:33;;;;;;;11.75;4.00;;;;;;;26.30;15.95;98761.81;5038148;28;20083;-89
2021/04/24 02:42:01;;;;;;;11.57;4.72;;;;;;;26.24;16.09;98763.53;5035601;28;20175;-89
2021/04/24 02:44:28;;;;;;;8.40;4.07;;;;;;;26.06;16.23;98756.22;5038505;28;20177;-89
2021/04/24 02:46:56;;;;;;;11.60;4.22;;;;;;;26.01;16.14;98753.91;5041566;28;20047;-89
2021/04/24 02:49:22;;;;;;;8.98;3.97;;;;;;;26.05;16.03;98751.00;5041835;28;20057;-89
2021/04/24 02:51:48;;;;;;;8.95;3.80;;;;;;;26.22;15.80;98747.06;5038016;28;20091;-90
2021/04/24 02:54:14;;;;;;;11.48;4.32;;;;;;;26.39;15.58;98745.13;5042479;28;20029;-89
2021/04/24 02:56:40;;;;;;;7.38;3.67;;;;;;;26.47;15.86;98743.75;5038590;28;20075;-89
2021/04/24 02:59:06;;;;;;;7.90;3.70;;;;;;;26.28;16.10;98742.53;5038913;28;20048;-89
2021/04/24 03:01:32;;;;;;;8.55;3.88;;;;;;;26.41;15.86;98737.03;5045769;28;22001;-89
2021/04/24 03:03:58;;;;;;;8.95;3.65;;;;;;;26.20;15.93;98741.09;5035911;28;20475;-89
2021/04/24 03:06:25;;;;;;;6.75;3.38;;;;;;;25.98;16.50;98740.69;5034910;28;20514;-88
2021/04/24 03:08:51;;;;;;;7.75;3.08;;;;;;;26.00;16.19;98737.41;5045951;28;20024;-89
2021/04/24 03:11:18;;;;;;;6.30;3.17;;;;;;;25.93;16.27;98746.81;5043175;28;20029;-89
2021/04/24 03:13:44;;;;;;;4.80;2.60;;;;;;;25.75;16.35;98756.78;5036819;28;20510;-88
2021/04/24 03:16:10;;;;;;;6.47;2.95;;;;;;;25.46;16.65;98759.31;5036436;28;20034;-88
2021/04/24 03:18:37;;;;;;;5.35;3.08;;;;;;;25.44;16.48;98764.56;5034742;28;20037;-89
2021/04/24 03:21:03;;;;;;;8.35;2.20;;;;;;;25.18;16.77;98774.56;5041064;28;20447;-89
2021/04/24 03:23:29;;;;;;;6.45;2.55;;;;;;;25.38;16.57;98778.28;5042512;28;20038;-89
2021/04/24 03:25:55;;;;;;;6.65;3.67;;;;;;;24.66;16.82;98770.50;5042037;28;20040;-87
2021/04/24 03:28:21;;;;;;;7.55;2.50;;;;;;;24.98;16.64;98767.25;5039122;28;20033;-87
2021/04/24 03:30:48;;;;;;;6.55;2.30;;;;;;;25.35;16.43;98761.47;5039068;28;20390;-87
2021/04/24 03:33:14;;;;;;;5.75;3.28;;;;;;;25.84;16.48;98762.66;5034542;28;20030;-87
2021/04/24 03:35:40;;;;;;;5.20;2.70;;;;;;;26.18;16.19;98760.44;5035208;28;20382;-86
2021/04/24 03:38:06;;;;;;;9.75;3.17;;;;;;;26.24;16.42;98755.88;5039804;28;20037;-87
2021/04/24 03:40:33;;;;;;;9.00;3.97;;;;;;;25.35;17.06;98789.56;5044661;28;20037;-87
2021/04/24 03:42:59;;;;;;;3.42;2.28;;;;;;;25.65;16.90;98777.47;5040087;28;20032;-87
2021/04/24 03:45:26;;;;;;;5.90;2.58;;;;;;;25.74;16.09;98778.50;5040345;28;20033;-87
2021/04/24 03:47:54;;;;;;;5.50;2.28;;;;;;;25.38;16.81;98780.31;5036243;28;20033;-87
2021/04/24 03:50:22;;;;;;;6.05;1.98;;;;;;;25.07;16.38;98798.44;5035359;28;20032;-87
2021/04/24 03:52:49;;;;;;;3.67;2.00;;;;;;;24.90;16.71;98789.03;5037475;28;20072;-87
2021/04/24 03:55:16;;;;;;;3.63;1.70;;;;;;;25.14;16.55;98798.34;5042958;28;20032;-87
2021/04/24 03:57:46;;;;;;;4.15;1.73;;;;;;;25.39;16.53;98787.53;5046777;28;20041;-89
2021/04/24 04:00:14;;;;;;;3.95;1.85;;;;;;;25.86;16.21;98788.34;5043373;28;20072;-90
2021/04/24 04:02:46;;;;;;;5.65;2.50;;;;;;;25.43;16.46;98796.69;5044399;28;20078;-89
2021/04/24 04:05:13;;;;;;;4.32;1.90;;;;;;;25.18;16.79;98808.31;5039951;28;20045;-89
2021/04/24 04:07:39;;;;;;;3.63;2.05;;;;;;;24.17;17.31;98816.00;5044087;28;20479;-89
2021/04/24 04:10:06;;;;;;;5.03;2.42;;;;;;;23.03;18.29;98812.50;5040230;28;20107;-89
2021/04/24 04:12:32;;;;;;;4.50;2.40;;;;;;;23.17;18.50;98815.22;5040936;28;20095;-86
2021/04/24 04:14:58;;;;;;;5.55;2.33;;;;;;;22.79;18.95;98816.22;5041522;28;20056;-87
2021/04/24 04:17:24;;;;;;;7.25;2.40;;;;;;;23.24;18.30;98817.97;5038681;28;20032;-87
2021/04/24 04:19:50;;;;;;;3.97;1.95;;;;;;;23.13;18.54;98814.41;5039975;28;20033;-86
2021/04/24 04:22:16;;;;;;;5.80;2.33;;;;;;;23.24;18.44;98812.38;5038561;28;20029;-86
2021/04/24 04:24:42;;;;;;;8.15;2.80;;;;;;;22.80;18.87;98820.63;5033775;28;20510;-86
2021/04/24 04:27:09;;;;;;;6.20;2.58;;;;;;;22.98;18.57;98822.13;5033846;28;20390;-86
2021/04/24 04:29:35;;;;;;;5.32;2.58;;;;;;;22.00;19.56;98826.88;5040448;28;20026;-86
2021/04/24 04:32:01;;;;;;;7.07;3.53;;;;;;;22.42;19.30;98822.34;5039577;28;20117;-87
2021/04/24 04:34:27;;;;;;;10.40;2.63;;;;;;;22.65;19.17;98834.69;5042574;28;20025;-86
2021/04/24 04:36:53;;;;;;;9.82;3.95;;;;;;;22.16;19.79;98843.19;5042143;28;20038;-86
2021/04/24 04:39:19;;;;;;;4.28;2.63;;;;;;;22.23;19.73;98836.78;5034102;28;20112;-86
2021/04/24 04:41:45;;;;;;;10.35;3.28;;;;;;;21.99;19.98;98835.63;5045823;28;20038;-85
2021/04/24 04:44:11;;;;;;;7.88;3.15;;;;;;;22.44;19.51;98836.72;5040670;28;20148;-86
2021/04/24 04:46:37;;;;;;;8.30;2.88;;;;;;;22.90;19.41;98834.56;5043312;28;20038;-87
2021/04/24 04:49:03;;;;;;;14.45;4.55;;;;;;;21.85;19.96;98833.66;5031382;28;20038;-87
2021/04/24 04:51:29;;;;;;;11.43;4.07;;;;;;;22.78;19.85;98835.00;5047573;28;20044;-87
2021/04/24 04:53:56;;;;;;;12.15;4.70;;;;;;;23.90;18.07;98841.06;5044658;28;20030;-87
2021/04/24 04:56:22;;;;;;;6.22;3.10;;;;;;;23.95;18.66;98841.44;5037064;28;20036;-87
2021/04/24 04:58:48;;;;;;;8.23;3.60;;;;;;;23.18;19.47;98834.41;5040730;28;20046;-87
2021/04/24 05:01:14;;;;;;;10.52;4.25;;;;;;;23.58;19.12;98840.56;5034163;28;20041;-87
2021/04/24 05:03:40;;;;;;;6.97;3.60;;;;;;;24.27;18.65;98840.34;5041312;28;20068;-87
2021/04/24 05:06:06;;;;;;;7.20;3.58;;;;;;;24.01;19.41;98848.19;5033159;28;20041;-87
2021/04/24 05:08:36;;;;;;;8.77;3.63;;;;;;;23.27;19.53;98859.97;5042159;28;20033;-87
2021/04/24 05:11:05;;;;;;;9.80;3.70;;;;;;;23.06;19.78;98857.28;5040268;28;20033;-87
2021/04/24 05:13:32;;;;;;;8.75;3.80;;;;;;;23.30;19.41;98856.34;5044394;28;20036;-87
2021/04/24 05:15:58;;;;;;;7.07;4.55;;;;;;;24.18;18.48;98854.84;5033384;28;20029;-87
2021/04/24 05:18:25;;;;;;;7.63;4.50;;;;;;;23.51;19.15;98863.84;5041682;28;20478;-87
2021/04/24 05:20:51;;;;;;;10.30;4.72;;;;;;;22.49;20.28;98867.91;5042572;28;20032;-87
2021/04/24 05:23:17;;;;;;;10.60;4.43;;;;;;;23.84;18.58;98843.53;5039773;28;20034;-87
2021/04/24 05:25:43;;;;;;;9.00;4.65;;;;;;;24.53;18.05;98846.06;5041275;28;20033;-87
2021/04/24 05:28:10;;;;;;;6.93;3.60;;;;;;;25.37;17.15;98827.28;5043863;28;20146;-87
2021/04/24 05:30:36;;;;;;;9.73;4.63;;;;;;;24.84;17.42;98818.81;5046117;28;20052;-87
2021/04/24 05:33:03;;;;;;;9.00;3.50;;;;;;;24.67;17.38;98828.25;5051723;28;20053;-89
2021/04/24 05:35:29;;;;;;;10.50;4.50;;;;;;;25.92;16.97;98838.09;5050218;28;20037;-85
2021/04/24 05:37:55;;;;;;;6.53;3.55;;;;;;;25.65;16.24;98828.09;5041693;28;20088;-88
2021/04/24 05:40:21;;;;;;;7.50;4.18;;;;;;;25.48;16.96;98841.22;5041819;28;20037;-88
2021/04/24 05:42:48;;;;;;;6.53;3.78;;;;;;;26.30;16.51;98832.19;5050075;28;20470;-87
2021/04/24 05:45:14;;;;;;;10.90;3.75;;;;;;;25.91;16.54;98844.13;5051325;28;20044;-88
2021/04/24 05:47:42;;;;;;;6.55;3.53;;;;;;;25.10;17.42;98848.19;5050610;28;20397;-87
2021/04/24 05:50:11;;;;;;;9.93;4.18;;;;;;;23.75;17.75;98846.03;5036607;28;20403;-87
2021/04/24 05:52:38;;;;;;;8.07;4.18;;;;;;;23.96;17.36;98845.03;5053859;28;20479;-87
2021/04/24 05:55:06;;;;;;;8.35;3.83;;;;;;;24.41;16.75;98832.56;5047631;28;20112;-88
2021/04/24 05:57:33;;;;;;;7.65;3.63;;;;;;;22.43;18.46;98843.53;5048688;28;20479;-88
2021/04/24 05:59:59;;;;;;;9.13;3.65;;;;;;;23.53;18.43;98839.00;5050809;28;20458;-88
2021/04/24 06:02:25;;;;;;;8.35;4.13;;;;;;;24.83;16.75;98841.72;5052143;28;20037;-89
2021/04/24 06:04:51;;;;;;;6.00;3.10;;;;;;;25.31;15.55;98836.63;5039977;28;20033;-89
2021/04/24 06:07:18;;;;;;;8.10;3.40;;;;;;;25.20;15.45;98839.63;5049204;28;20037;-89
2021/04/24 06:09:44;;;;;;;5.95;3.03;;;;;;;25.93;15.94;98848.09;5047345;28;20099;-90
2021/04/24 06:12:10;;;;;;;10.10;4.05;;;;;;;24.73;16.19;98846.22;5053209;28;20029;-89
2021/04/24 06:14:36;;;;;;;10.77;4.15;;;;;;;23.39;17.33;98853.09;5054201;28;20021;-88
2021/04/24 06:17:02;;;;;;;7.68;3.63;;;;;;;23.12;17.54;98847.25;5049086;28;20036;-88
2021/04/24 06:19:29;;;;;;;8.90;3.70;;;;;;;21.55;20.39;98865.97;5054849;28;20025;-88
2021/04/24 06:21:55;;;;;;;7.47;4.05;;;;;;;20.43;21.44;98870.78;5054783;28;20037;-90
2021/04/24 06:24:21;;;;;;;8.80;3.70;;;;;;;21.54;19.86;98862.38;5049339;28;20487;-90
2021/04/24 06:26:48;;;;;;;8.07;4.35;;;;;;;21.66;19.46;98864.78;5052904;28;20098;-90
2021/04/24 06:29:14;;;;;;;10.07;4.28;;;;;;;22.33;19.06;98859.16;5042133;28;20125;-91
2021/04/24 06:31:40;;;;;;;6.90;3.63;;;;;;;23.56;17.30;98855.00;5044312;28;20044;-91
2021/04/24 06:34:06;;;;;;;6.85;3.90;;;;;;;23.17;17.50;98851.63;5045822;28;20403;-90
2021/04/24 06:36:32;;;;;;;6.95;2.85;;;;;;;23.35;17.92;98866.34;5051138;28;20048;-90
2021/04/24 06:38:59;;;;;;;7.47;3.42;;;;;;;22.34;19.77;98860.75;5054504;28;20134;-89
2021/04/24 06:41:26;;;;;;;6.93;3.70;;;;;;;23.12;18.04;98866.06;5053860;28;20029;-90
2021/04/24 06:43:52;;;;;;;7.13;4.25;;;;;;;22.63;18.14;98870.69;5046163;28;20474;-92
2021/04/24 06:46:18;;;;;;;6.72;3.63;;;;;;;23.19;16.74;98866.03;5048303;28;20057;-89
2021/04/24 06:48:44;;;;;;;7.78;3.35;;;;;;;22.50;18.30;98882.69;5050246;28;20028;-89
2021/04/24 06:51:10;;;;;;;10.07;3.92;;;;;;;22.24;19.08;98867.16;5050730;28;20392;-90
2021/04/24 06:53:36;;;;;;;6.07;2.97;;;;;;;21.82;19.88;98881.16;5047408;28;20032;-88
2021/04/24 06:56:03;;;;;;;5.97;3.22;;;;;;;21.06;20.44;98886.22;5049601;28;20025;-88
2021/04/24 06:58:29;;;;;;;8.57;4.63;;;;;;;19.99;21.14;98884.81;5046054;28;20479;-88
2021/04/24 07:00:55;;;;;;;6.80;3.63;;;;;;;21.62;19.85;98882.75;5047144;28;20033;-89
2021/04/24 07:03:23;;;;;;;10.63;4.47;;;;;;;21.80;20.08;98889.13;5049589;28;20025;-89
2021/04/24 07:05:49;;;;;;;10.52;4.05;;;;;;;22.36;18.76;98875.13;5049955;28;20033;-89
2021/04/24 07:08:15;;;;;;;9.00;3.58;;;;;;;24.31;16.70;98864.38;5048745;28;20041;-89
2021/04/24 07:10:42;;;;;;;10.32;3.55;;;;;;;25.02;16.48;98858.72;5051331;28;20068;-89
2021/04/24 07:13:08;;;;;;;7.03;3.22;;;;;;;25.76;15.57;98857.66;5043811;28;20033;-89
2021/04/24 07:15:34;;;;;;;8.43;3.35;;;;;;;25.69;15.65;98857.75;5043183;28;20473;-88
2021/04/24 07:18:01;;;;;;;6.43;2.83;;;;;;;26.77;14.60;98852.63;5051041;28;20025;-86
2021/04/24 07:20:28;;;;;;;4.45;2.30;;;;;;;27.48;14.93;98849.84;5054035;28;20083;-87
2021/04/24 07:22:54;;;;;;;7.80;3.13;;;;;;;27.81;14.78;98848.63;5051086;28;20064;-87
2021/04/24 07:25:20;;;;;;;6.32;2.67;;;;;;;26.50;14.85;98847.88;5049575;28;20037;-85
2021/04/24 07:27:46;;;;;;;9.52;3.13;;;;;;;26.53;15.20;98852.66;5049610;28;20025;-85
2021/04/24 07:30:13;;;;;;;7.38;2.65;;;;;;;27.36;14.65;98844.84;5047179;28;20040;-90
2021/04/24 07:32:39;;;;;;;3.97;2.20;;;;;;;28.37;14.95;98831.47;5052073;28;20071;-89
2021/04/24 07:35:07;;;;;;;7.80;2.67;;;;;;;27.13;14.17;98826.06;5044238;28;20117;-89
2021/04/24 07:37:33;;;;;;;2.45;1.50;;;;;;;27.39;14.51;98847.63;5061534;28;20504;-89
2021/04/24 07:40:00;;;;;;;4.35;2.05;;;;;;;27.11;14.70;98851.06;5042038;28;20083;-92
2021/04/24 07:42:26;;;;;;;3.70;2.13;;;;;;;26.24;15.01;98850.81;5046386;28;20025;-82
2021/04/24 07:44:52;;;;;;;4.15;2.03;;;;;;;25.66;16.05;98855.00;5043766;28;20037;-83
2021/04/24 07:47:19;;;;;;;6.22;2.28;;;;;;;24.77;16.84;98851.81;5041673;28;20037;-82
2021/04/24 07:49:45;;;;;;;4.55;2.20;;;;;;;24.28;16.53;98853.16;5036230;28;20030;-83
2021/04/24 07:52:11;;;;;;;8.70;3.05;;;;;;;21.93;18.29;98863.22;5041796;28;20036;-82
2021/04/24 07:54:43;;;;;;;7.38;2.67;;;;;;;21.95;20.22;98874.00;5039106;28;20372;-82
2021/04/24 07:57:14;;;;;;;6.40;3.33;;;;;;;22.22;19.87;98849.97;5048013;28;20028;-82
2021/04/24 07:59:40;;;;;;;;;;;;;;;24.52;16.25;98849.28;5045456;28;20065;-82
2021/04/24 08:02:06;;;;;;;6.05;2.15;;;;;;;23.97;17.67;98855.03;5044733;28;19928;-82
2021/04/24 08:04:32;;;;;;;3.85;2.10;;;;;;;22.85;18.94;98846.19;5046211;28;20041;-82
2021/04/24 08:06:59;;;;;;;3.60;1.83;;;;;;;23.41;19.04;98844.31;5036787;28;20029;-81
2021/04/24 08:09:26;;;;;;;3.42;2.30;;;;;;;23.97;18.31;98846.63;5046663;28;20064;-82
2021/04/24 08:11:53;;;;;;;3.92;1.52;;;;;;;25.01;16.91;98843.09;5037086;28;20022;-82
2021/04/24 08:14:19;;;;;;;6.15;2.38;;;;;;;24.43;16.16;98829.34;5043866;28;20037;-84
2021/04/24 08:16:46;;;;;;;5.80;2.10;;;;;;;23.85;16.89;98836.72;5036303;28;20512;-85
2021/04/24 08:19:12;;;;;;;5.30;2.40;;;;;;;23.09;17.13;98828.47;5042753;28;20040;-83
2021/04/24 08:21:40;;;;;;;3.33;1.83;;;;;;;22.84;18.21;98847.41;5036794;28;20029;-82
2021/04/24 08:24:07;;;;;;;6.68;1.95;;;;;;;22.11;19.17;98849.19;5041928;28;20039;-82
2021/04/24 08:26:33;;;;;;;4.30;1.60;;;;;;;22.96;17.91;98846.94;5042320;28;20533;-82
2021/04/24 08:28:59;;;;;;;3.60;1.63;;;;;;;22.48;18.15;98843.91;5038474;28;20034;-81
2021/04/24 08:31:25;;;;;;;2.47;1.40;;;;;;;21.50;20.12;98855.19;5038326;28;20040;-81
2021/04/24 08:33:54;;;;;;;4.82;1.73;;;;;;;22.63;18.27;98842.69;5039409;28;20033;-83
2021/04/24 08:36:20;;;;;;;4.07;1.63;;;;;;;21.85;19.31;98844.03;5042481;28;20037;-81
2021/04/24 08:38:46;;;;;;;3.13;1.50;;;;;;;22.32;16.96;98842.75;5047782;28;20159;-81
2021/04/24 08:41:12;;;;;;;4.50;1.67;;;;;;;23.70;16.92;98846.47;5045332;28;20033;-82
2021/04/24 08:43:39;;;;;;;6.40;2.13;;;;;;;20.42;18.75;98834.94;5044734;28;20044;-82
2021/04/24 08:46:06;;;;;;;3.40;1.60;;;;;;;21.75;18.70;98837.22;5037467;28;20034;-82
2021/04/24 08:48:36;;;;;;;4.50;1.77;;;;;;;22.57;18.27;98835.88;5043293;28;20167;-82
2021/04/24 08:51:02;;;;;;;4.28;2.00;;;;;;;23.42;16.94;98837.47;5041077;28;20033;-82
2021/04/24 08:53:29;;;;;;;2.67;1.60;;;;;;;22.97;17.99;98842.13;5042832;28;20087;-84
2021/04/24 08:55:55;;;;;;;4.32;1.90;;;;;;;23.95;17.40;98840.63;5043405;28;20021;-82
2021/04/24 08:58:21;;;;;;;3.38;1.55;;;;;;;22.37;18.99;98836.75;5040272;28;20112;-82
2021/04/24 09:00:50;;;;;;;3.67;1.60;;;;;;;22.14;18.52;98828.84;5050006;28;20083;-82
2021/04/24 09:03:21;;;;;;;5.10;1.77;;;;;;;23.24;17.73;98832.75;5068102;28;20034;-81
2021/04/24 09:05:48;;;;;;;;;;;;;;;23.84;15.09;98832.31;5051290;28;20044;-82
2021/04/24 09:08:25;;;;;;;4.88;2.00;;;;;;;22.26;17.63;98822.81;5051034;28;20007;-84
2021/04/24 09:10:56;;;;;;;3.20;1.55;;;;;;;21.45;19.42;98833.25;5045358;28;20036;-82
2021/04/24 09:13:24;;;;;;;2.73;1.23;;;;;;;22.10;19.40;98821.66;5044857;28;20107;-84
2021/04/24 09:15:51;;;;;;;4.38;1.50;;;;;;;21.80;18.60;98817.25;5045390;28;20503;-83
2021/04/24 09:18:18;;;;;;;3.78;1.50;;;;;;;21.61;19.52;98834.44;5039939;28;20029;-83
2021/04/24 09:20:52;;;;;;;4.35;2.00;;;;;;;22.51;17.45;98823.53;5042848;28;20036;-84
2021/04/24 09:23:23;;;;;;;5.00;1.92;;;;;;;24.38;16.12;98810.97;5041953;28;20021;-83
2021/04/24 09:26:03;;;;;;;3.10;1.65;;;;;;;24.34;17.40;98823.44;5042890;28;20029;-84
2021/04/24 09:28:35;;;;;;;3.53;1.40;;;;;;;22.63;18.55;98825.91;5045626;28;20026;-83
2021/04/24 09:31:10;;;;;;;3.85;1.80;;;;;;;22.67;16.32;98817.47;5046064;28;20029;-84
2021/04/24 09:33:38;;;;;;;6.50;1.80;;;;;;;22.16;19.53;98823.63;5038277;28;20034;-85
2021/04/24 09:36:07;;;;;;;4.13;1.95;;;;;;;22.12;18.01;98803.28;5046035;28;20087;-83
2021/04/24 09:38:35;;;;;;;4.70;2.22;;;;;;;21.86;18.88;98835.28;5050219;28;20567;-82
2021/04/24 09:41:14;;;;;;;3.55;2.10;;;;;;;22.60;17.96;98817.47;5049716;28;20079;-82
2021/04/24 09:44:03;;;;;;;2.33;1.85;;;;;;;22.76;18.37;98808.63;5064684;28;20374;-82
2021/04/24 09:46:33;;;;;;;3.90;1.85;;;;;;;23.23;17.18;98814.34;5045456;28;20037;-82
2021/04/24 09:49:20;;;;;;;4.25;2.00;;;;;;;22.02;17.83;98813.28;5042580;28;20025;-82
2021/04/24 09:52:04;;;;;;;3.03;1.60;;;;;;;23.09;16.52;98810.84;5048502;28;20394;-83
2021/04/24 09:54:42;;;;;;;2.05;1.40;;;;;;;23.09;18.34;98799.66;5050678;28;20029;-83
2021/04/24 09:57:11;;;;;;;3.70;2.08;;;;;;;22.47;19.53;98791.16;5040861;28;20036;-84
2021/04/24 09:59:58;;;;;;;3.00;1.85;;;;;;;23.45;16.34;98789.81;5040482;28;20040;-83
2021/04/24 10:02:44;;;;;;;3.85;2.20;;;;;;;24.78;15.56;98786.81;5045426;28;20037;-85
2021/04/24 10:05:13;;;;;;;2.67;1.80;;;;;;;22.83;17.03;98795.41;5041570;28;20041;-85
2021/04/24 10:07:44;;;;;;;4.57;2.20;;;;;;;23.30;17.92;98805.09;5043431;28;20030;-82
2021/04/24 10:10:13;;;;;;;3.97;2.20;;;;;;;25.04;14.98;98783.22;5042271;28;20024;-82
2021/04/24 10:12:40;;;;;;;4.60;1.50;;;;;;;26.67;14.22;98779.13;5046583;28;20514;-82
2021/04/24 10:15:08;;;;;;;1.77;1.20;;;;;;;28.33;13.97;98771.47;5059332;28;20041;-81
2021/04/24 10:17:35;;;;;;;4.85;1.80;;;;;;;28.64;12.64;98769.75;5047991;28;20029;-81
2021/04/24 10:20:04;;;;;;;2.65;1.40;;;;;;;27.42;12.91;98777.47;5044988;28;20029;-81
2021/04/24 10:22:31;;;;;;;2.22;1.52;;;;;;;26.45;13.38;98775.16;5045219;28;20030;-82
2021/04/24 10:24:59;;;;;;;2.42;1.55;;;;;;;25.17;15.00;98777.81;5042267;28;20025;-81
2021/04/24 10:27:25;;;;;;;2.38;1.98;;;;;;;26.22;13.45;98763.16;5042971;28;20552;-82
2021/04/24 10:29:51;;;;;;;3.33;1.58;;;;;;;26.14;14.58;98761.75;5042755;28;20431;-82
2021/04/24 10:32:17;;;;;;;5.35;1.65;;;;;;;25.91;14.62;98771.75;5041007;28;20118;-82
2021/04/24 10:34:44;;;;;;;2.67;1.40;;;;;;;26.03;15.87;98778.78;5041666;28;20029;-82
2021/04/24 10:37:11;;;;;;;5.45;1.95;;;;;;;25.42;14.94;98767.78;5039320;28;20108;-82
2021/04/24 10:39:39;;;;;;;6.45;2.22;;;;;;;25.38;14.84;98775.47;5043414;28;20021;-82
2021/04/24 10:42:21;;;;;;;3.33;1.80;;;;;;;25.73;14.92;98773.31;5040052;28;20169;-82
2021/04/24 10:45:00;;;;;;;3.95;1.80;;;;;;;25.67;15.20;98760.97;5045934;28;20521;-82
2021/04/24 10:47:54;;;;;;;3.25;1.60;;;;;;;26.11;14.80;98779.47;5048006;28;20346;-82
2021/04/24 10:50:40;;;;;;;5.40;1.33;;;;;;;26.19;16.57;98761.22;5039365;28;20503;-82
2021/04/24 10:53:24;;;;;;;3.95;1.95;;;;;;;26.11;13.98;98763.41;5045121;28;20041;-82
2021/04/24 10:55:52;;;;;;;2.67;1.77;;;;;;;25.99;15.43;98764.78;5040536;28;20030;-83
2021/04/24 10:58:21;;;;;;;5.07;1.98;;;;;;;24.70;15.65;98758.00;5042961;28;20037;-82
2021/04/24 11:00:59;;;;;;;5.05;1.88;;;;;;;24.93;16.20;98762.13;5045794;28;20099;-82
2021/04/24 11:03:45;;;;;;;5.20;1.85;;;;;;;26.54;13.92;98758.47;5044719;28;20037;-82
2021/04/24 11:06:29;;;;;;;4.40;1.80;;;;;;;25.17;13.80;98767.38;5045852;28;20067;-81
2021/04/24 11:09:18;;;;;;;6.63;2.40;;;;;;;26.12;13.49;98748.06;5040498;28;20025;-82
2021/04/24 11:11:49;;;;;;;9.27;2.58;;;;;;;26.59;13.92;98751.53;5043020;28;20386;-82
2021/04/24 11:14:18;;;;;;;5.65;2.38;;;;;;;25.37;15.10;98750.59;5043433;28;20032;-82
2021/04/24 11:16:45;;;;;;;4.60;1.73;;;;;;;25.53;14.70;98766.84;5042415;28;20547;-82
2021/04/24 11:19:32;;;;;;;4.15;1.85;;;;;;;25.06;14.64;98763.94;5044550;28;20390;-82
2021/04/24 11:22:30;;;;;;;3.17;1.85;;;;;;;26.45;13.48;98746.19;5043074;28;20033;-82
2021/04/24 11:25:16;;;;;;;5.32;2.00;;;;;;;25.21;14.55;98753.25;5039535;28;20120;-84
2021/04/24 11:28:04;;;;;;;3.40;1.77;;;;;;;25.56;14.68;98749.88;5039936;28;20060;-84
2021/04/24 11:30:55;;;;;;;4.60;1.95;;;;;;;27.02;14.44;98749.41;5043764;28;20033;-84
2021/04/24 11:33:47;;;;;;;4.65;2.00;;;;;;;27.29;13.29;98747.13;5038000;28;20038;-84
2021/04/24 11:36:13;;;;;;;4.53;1.70;;;;;;;27.07;16.17;98746.03;5040808;28;20048;-84
2021/04/24 11:41:43;;;;;;;4.47;2.33;;;;;;;23.76;16.83;98757.06;5040439;28;20453;-83